createdAt,value
2023-03-13T00:01:44.237Z,27.42
2023-03-13T00:04:12.066Z,25.72
2023-03-13T00:06:40.839Z,25.32
2023-03-13T00:09:11.645Z,24.15
2023-03-13T00:11:39.355Z,23.65
2023-03-13T00:14:08.464Z,25.57
2023-03-13T00:16:37.424Z,24.92
2023-03-13T00:19:07.286Z,24.98
2023-03-13T00:21:36.889Z,26.20
2023-03-13T00:24:04.814Z,25.52
2023-03-13T00:26:32.441Z,24.35
2023-03-13T00:29:00.282Z,27.17
2023-03-13T00:31:31.918Z,25.85
2023-03-13T00:34:02.312Z,27.32
2023-03-13T00:36:34.053Z,25.32
2023-03-13T00:39:05.733Z,23.65
2023-03-13T00:41:37.656Z,23.40
2023-03-13T00:44:06.178Z,23.20
2023-03-13T00:46:34.570Z,22.85
2023-03-13T00:49:03.238Z,21.60
2023-03-13T00:51:30.968Z,20.32
2023-03-13T00:54:00.608Z,18.95
2023-03-13T00:56:29.516Z,21.05
2023-03-13T00:58:57.506Z,20.20
2023-03-13T01:01:29.041Z,18.70
2023-03-13T01:04:00.950Z,17.05
2023-03-13T01:06:33.688Z,16.27
2023-03-13T01:09:04.114Z,17.25
2023-03-13T01:11:36.047Z,17.80
2023-03-13T01:14:08.045Z,19.12
2023-03-13T01:16:37.623Z,18.70
2023-03-13T01:19:12.550Z,16.85
2023-03-13T01:21:40.605Z,16.32
2023-03-13T01:24:09.200Z,17.75
2023-03-13T01:26:37.033Z,17.67
2023-03-13T01:29:04.853Z,16.50
2023-03-13T01:31:35.638Z,16.02
2023-03-13T01:34:06.583Z,16.80
2023-03-13T01:36:37.251Z,15.55
2023-03-13T01:39:05.896Z,17.00
2023-03-13T01:41:33.735Z,18.45
2023-03-13T01:44:01.287Z,18.23
2023-03-13T01:49:23.374Z,19.50
2023-03-13T01:51:58.426Z,19.70
2023-03-13T01:54:40.927Z,20.30
2023-03-13T01:57:17.187Z,18.60
2023-03-13T01:59:53.127Z,18.37
2023-03-13T02:02:22.686Z,16.62
2023-03-13T02:04:55.318Z,16.87
2023-03-13T02:07:37.086Z,17.17
2023-03-13T02:10:06.471Z,15.88
2023-03-13T02:12:37.939Z,16.42
2023-03-13T02:15:20.191Z,16.30
2023-03-13T02:17:50.291Z,15.00
2023-03-13T02:20:21.781Z,17.32
2023-03-13T02:23:31.378Z,17.73
2023-03-13T02:25:59.391Z,17.92
2023-03-13T02:28:33.133Z,17.95
2023-03-13T02:31:01.997Z,16.95
2023-03-13T02:33:36.282Z,17.52
2023-03-13T02:36:07.648Z,16.48
2023-03-13T02:38:41.688Z,16.10
2023-03-13T02:41:10.784Z,16.23
2023-03-13T02:43:40.016Z,12.73
2023-03-13T02:46:15.179Z,12.88
2023-03-13T02:48:52.748Z,13.98
2023-03-13T02:51:37.812Z,15.00
2023-03-13T02:54:10.590Z,12.65
2023-03-13T02:56:41.895Z,13.25
2023-03-13T02:59:10.123Z,11.55
2023-03-13T03:01:39.529Z,12.03
2023-03-13T03:04:07.612Z,12.73
2023-03-13T03:06:35.609Z,12.93
2023-03-13T03:09:05.260Z,11.78
2023-03-13T03:11:34.783Z,11.08
2023-03-13T03:14:05.452Z,10.85
2023-03-13T03:16:35.129Z,9.93
2023-03-13T03:19:06.180Z,9.23
2023-03-13T03:21:35.049Z,9.53
2023-03-13T03:24:03.483Z,10.53
2023-03-13T03:26:31.542Z,11.30
2023-03-13T03:29:00.146Z,13.13
2023-03-13T03:31:28.537Z,10.13
2023-03-13T03:33:57.418Z,9.20
2023-03-13T03:36:25.540Z,9.38
2023-03-13T03:38:53.619Z,9.65
2023-03-13T03:41:23.260Z,10.68
2023-03-13T03:43:51.316Z,10.98
2023-03-13T03:46:21.037Z,10.75
2023-03-13T03:48:48.814Z,10.78
2023-03-13T03:51:16.684Z,10.98
2023-03-13T03:53:45.410Z,10.78
2023-03-13T03:56:14.102Z,11.63
2023-03-13T03:58:43.790Z,11.57
2023-03-13T04:01:19.456Z,13.72
2023-03-13T04:03:48.621Z,16.27
2023-03-13T04:06:16.744Z,19.12
2023-03-13T04:08:45.246Z,19.25
2023-03-13T04:11:14.871Z,15.98
2023-03-13T04:13:44.556Z,14.53
2023-03-13T04:16:12.543Z,15.25
2023-03-13T04:18:41.063Z,19.73
2023-03-13T04:21:08.902Z,19.50
2023-03-13T04:23:44.322Z,15.10
2023-03-13T04:26:13.919Z,17.37
2023-03-13T04:28:42.118Z,15.43
2023-03-13T04:31:11.945Z,13.53
2023-03-13T04:33:41.588Z,10.50
2023-03-13T04:36:27.505Z,9.03
2023-03-13T04:41:35.813Z,7.45
2023-03-13T04:44:11.625Z,10.18
2023-03-13T04:46:59.172Z,8.38
2023-03-13T04:49:37.538Z,9.40
2023-03-13T04:52:19.417Z,8.90
2023-03-13T04:55:01.036Z,10.13
2023-03-13T04:57:45.813Z,10.63
2023-03-13T05:00:16.923Z,12.03
2023-03-13T05:02:52.662Z,11.90
2023-03-13T05:05:23.244Z,14.10
2023-03-13T05:08:10.375Z,15.38
2023-03-13T05:10:47.829Z,13.00
2023-03-13T05:13:17.681Z,13.48
2023-03-13T05:15:56.341Z,15.00
2023-03-13T05:18:38.802Z,16.05
2023-03-13T05:21:09.617Z,20.25
2023-03-13T05:23:37.315Z,21.27
2023-03-13T05:26:18.771Z,19.55
2023-03-13T05:28:57.302Z,19.27
2023-03-13T05:31:28.090Z,16.55
2023-03-13T05:34:15.915Z,14.43
2023-03-13T05:36:54.582Z,13.75
2023-03-13T05:39:36.010Z,12.43
2023-03-13T05:42:22.272Z,11.12
2023-03-13T05:45:04.522Z,12.40
2023-03-13T05:47:32.356Z,12.47
2023-03-13T05:50:06.372Z,9.88
2023-03-13T05:53:04.445Z,8.33
2023-03-13T05:55:51.665Z,8.80
2023-03-13T05:58:21.341Z,10.48
2023-03-13T06:00:57.360Z,10.58
2023-03-13T06:03:27.022Z,11.45
2023-03-13T06:05:59.534Z,12.90
2023-03-13T06:08:29.269Z,13.62
2023-03-13T06:11:00.395Z,12.00
2023-03-13T06:13:28.551Z,14.90
2023-03-13T06:15:58.713Z,10.95
2023-03-13T06:18:40.361Z,9.08
2023-03-13T06:21:08.180Z,8.43
2023-03-13T06:23:36.720Z,7.85
2023-03-13T06:26:04.687Z,8.68
2023-03-13T06:28:32.548Z,12.80
2023-03-13T06:31:05.407Z,11.20
2023-03-13T06:33:33.811Z,10.78
2023-03-13T06:36:02.680Z,10.55
2023-03-13T06:38:30.738Z,10.90
2023-03-13T06:40:58.605Z,8.95
2023-03-13T06:43:27.109Z,9.18
2023-03-13T06:45:55.280Z,8.58
2023-03-13T06:48:23.286Z,7.75
2023-03-13T06:50:51.337Z,9.00
2023-03-13T06:53:20.887Z,10.03
2023-03-13T06:55:48.758Z,10.63
2023-03-13T06:58:31.679Z,13.83
2023-03-13T07:00:49.929Z,14.30
2023-03-13T07:03:17.728Z,13.72
2023-03-13T07:05:45.500Z,13.03
2023-03-13T07:08:13.253Z,12.23
2023-03-13T07:10:43.174Z,16.35
2023-03-13T07:13:10.852Z,15.93
2023-03-13T07:15:38.348Z,15.60
2023-03-13T07:18:06.359Z,16.45
2023-03-13T07:20:34.833Z,15.93
2023-03-13T07:23:02.869Z,16.10
2023-03-13T07:25:30.597Z,16.60
2023-03-13T07:28:00.659Z,16.82
2023-03-13T07:30:28.704Z,17.90
2023-03-13T07:32:58.247Z,18.52
2023-03-13T07:35:25.997Z,16.93
2023-03-13T07:37:53.801Z,15.08
2023-03-13T07:40:21.452Z,13.28
2023-03-13T07:42:49.011Z,11.30
2023-03-13T07:45:16.992Z,10.45
2023-03-13T07:47:45.080Z,8.70
2023-03-13T07:50:12.847Z,7.37
2023-03-13T07:52:40.559Z,9.08
2023-03-13T07:55:08.922Z,8.25
2023-03-13T07:57:36.821Z,8.03
2023-03-13T08:00:07.771Z,9.70
2023-03-13T08:02:37.324Z,8.25
2023-03-13T08:05:05.681Z,11.35
2023-03-13T08:07:33.554Z,8.98
2023-03-13T08:10:01.315Z,8.43
2023-03-13T08:12:29.222Z,8.48
2023-03-13T08:14:57.028Z,7.42
2023-03-13T08:17:24.902Z,7.03
2023-03-13T08:19:52.479Z,6.65
2023-03-13T08:22:20.438Z,6.83
2023-03-13T08:24:48.168Z,5.95
2023-03-13T08:27:15.817Z,6.70
2023-03-13T08:29:43.812Z,7.50
2023-03-13T08:32:12.584Z,15.53
2023-03-13T08:34:40.380Z,12.65
2023-03-13T08:37:08.212Z,8.13
2023-03-13T08:39:35.995Z,8.18
2023-03-13T08:42:04.010Z,7.25
2023-03-13T08:44:31.605Z,6.90
2023-03-13T08:46:59.534Z,7.33
2023-03-13T08:49:27.284Z,6.62
2023-03-13T08:51:56.206Z,8.43
2023-03-13T08:54:24.097Z,6.47
2023-03-13T08:56:51.839Z,5.92
2023-03-13T08:59:19.667Z,6.03
2023-03-13T09:01:47.439Z,5.62
2023-03-13T09:04:15.172Z,6.83
2023-03-13T09:06:42.826Z,5.25
2023-03-13T09:09:11.964Z,5.72
2023-03-13T09:11:39.618Z,3.90
2023-03-13T09:14:09.913Z,3.45
2023-03-13T09:16:37.923Z,24.57
2023-03-13T09:19:06.274Z,7.67
2023-03-13T09:21:35.771Z,15.10
2023-03-13T09:24:03.665Z,5.10
2023-03-13T09:26:31.503Z,7.90
2023-03-13T09:28:59.377Z,3.58
2023-03-13T09:31:30.482Z,6.47
2023-03-13T09:33:59.614Z,3.72
2023-03-13T09:36:28.041Z,3.20
2023-03-13T09:38:58.758Z,3.33
2023-03-13T09:41:40.659Z,13.25
2023-03-13T09:44:29.094Z,5.30
2023-03-13T09:47:24.669Z,3.37
2023-03-13T09:50:00.614Z,7.25
2023-03-13T09:52:40.512Z,4.37
2023-03-13T09:55:20.980Z,3.45
2023-03-13T09:57:55.941Z,5.35
2023-03-13T10:00:41.898Z,6.35
2023-03-13T10:03:30.452Z,3.62
2023-03-13T10:06:02.401Z,3.58
2023-03-13T10:08:35.166Z,3.25
2023-03-13T10:11:32.736Z,4.97
2023-03-13T10:14:23.294Z,3.37
2023-03-13T10:17:05.649Z,3.50
2023-03-13T10:19:49.781Z,3.65
2023-03-13T10:22:23.162Z,4.08
2023-03-13T10:25:11.635Z,3.95
2023-03-13T10:27:51.240Z,3.65
2023-03-13T10:30:31.654Z,6.20
2023-03-13T10:33:10.767Z,3.40
2023-03-13T10:35:42.175Z,3.50
2023-03-13T10:38:24.592Z,3.75
2023-03-13T10:41:08.415Z,3.50
2023-03-13T10:43:39.077Z,3.00
2023-03-13T10:49:10.031Z,32.45
2023-03-13T10:51:40.470Z,3.42
2023-03-13T10:54:35.431Z,6.03
2023-03-13T10:57:23.199Z,3.42
2023-03-13T10:59:52.515Z,4.58
2023-03-13T11:02:32.203Z,3.37
2023-03-13T11:05:01.022Z,3.45
2023-03-13T11:07:39.992Z,4.15
2023-03-13T11:10:21.280Z,3.67
2023-03-13T11:12:54.971Z,2.70
2023-03-13T11:15:48.784Z,3.02
2023-03-13T11:18:30.834Z,2.72
2023-03-13T11:21:15.691Z,2.90
2023-03-13T11:23:37.127Z,2.90
2023-03-13T11:26:19.422Z,3.05
2023-03-13T11:29:08.039Z,3.22
2023-03-13T11:31:49.091Z,2.90
2023-03-13T11:34:28.161Z,3.58
2023-03-13T11:37:04.048Z,2.60
2023-03-13T11:40:13.682Z,2.98
2023-03-13T11:42:55.283Z,3.95
2023-03-13T11:45:55.531Z,3.10
2023-03-13T11:48:37.644Z,2.70
2023-03-13T11:51:33.381Z,2.10
2023-03-13T11:54:41.379Z,2.70
2023-03-13T11:57:37.459Z,1.95
2023-03-13T12:00:16.356Z,2.17
2023-03-13T12:03:18.535Z,1.95
2023-03-13T12:05:58.991Z,3.00
2023-03-13T12:08:46.193Z,3.42
2023-03-13T12:11:18.196Z,4.37
2023-03-13T12:14:03.754Z,3.55
2023-03-13T12:16:42.819Z,2.15
2023-03-13T12:19:17.830Z,3.95
2023-03-13T12:21:52.654Z,1.87
2023-03-13T12:24:28.817Z,1.75
2023-03-13T12:27:18.727Z,2.00
2023-03-13T12:30:06.609Z,1.95
2023-03-13T12:33:09.270Z,2.55
2023-03-13T12:35:40.593Z,2.52
2023-03-13T12:38:34.804Z,2.20
2023-03-13T12:41:35.406Z,2.47
2023-03-13T12:44:09.296Z,3.12
2023-03-13T12:47:00.450Z,2.15
2023-03-13T12:49:54.537Z,1.80
2023-03-13T12:52:51.206Z,1.77
2023-03-13T12:55:46.567Z,2.40
2023-03-13T12:58:51.612Z,2.05
2023-03-13T13:01:33.634Z,1.85
2023-03-13T13:04:14.994Z,2.00
2023-03-13T13:07:16.978Z,2.00
2023-03-13T13:10:12.878Z,2.45
2023-03-13T13:13:08.852Z,3.52
2023-03-13T13:15:46.555Z,2.08
2023-03-13T13:18:30.450Z,2.25
2023-03-13T13:21:22.616Z,2.08
2023-03-13T13:23:55.292Z,1.60
2023-03-13T13:26:35.790Z,2.20
2023-03-13T13:29:14.568Z,2.55
2023-03-13T13:31:51.215Z,3.65
2023-03-13T13:34:36.340Z,2.50
2023-03-13T13:37:24.436Z,2.00
2023-03-13T13:39:54.641Z,2.33
2023-03-13T13:42:40.351Z,2.30
2023-03-13T13:45:25.674Z,2.83
2023-03-13T13:48:17.233Z,2.27
2023-03-13T13:51:14.292Z,2.67
2023-03-13T13:54:01.105Z,2.95
2023-03-13T13:56:42.558Z,3.02
2023-03-13T13:59:30.534Z,3.35
2023-03-13T14:02:18.188Z,3.02
2023-03-13T14:05:10.892Z,4.08
2023-03-13T14:08:00.609Z,4.78
2023-03-13T14:10:38.653Z,3.35
2023-03-13T14:13:24.500Z,2.67
2023-03-13T14:15:53.705Z,3.23
2023-03-13T14:18:27.946Z,1.70
2023-03-13T14:21:03.576Z,1.98
2023-03-13T14:23:43.873Z,2.17
2023-03-13T14:26:22.363Z,2.20
2023-03-13T14:28:59.033Z,1.92
2023-03-13T14:31:35.078Z,2.85
2023-03-13T14:34:08.148Z,3.02
2023-03-13T14:37:01.435Z,2.55
2023-03-13T14:39:40.253Z,3.25
2023-03-13T14:42:18.081Z,2.90
2023-03-13T14:44:49.593Z,3.37
2023-03-13T14:47:32.403Z,2.80
2023-03-13T14:50:04.285Z,2.95
2023-03-13T14:52:46.870Z,2.50
2023-03-13T14:55:27.948Z,2.70
2023-03-13T14:58:05.007Z,2.85
2023-03-13T15:00:44.847Z,3.40
2023-03-13T15:03:21.368Z,3.55
2023-03-13T15:06:15.831Z,3.35
2023-03-13T15:09:11.704Z,3.70
2023-03-13T15:14:39.406Z,2.98
2023-03-13T15:17:15.026Z,3.50
2023-03-13T15:19:50.112Z,3.40
2023-03-13T15:22:21.803Z,3.33
2023-03-13T15:25:05.054Z,3.77
2023-03-13T15:27:23.266Z,3.65
2023-03-13T15:29:51.039Z,176.87
2023-03-13T15:32:37.840Z,29.87
2023-03-13T15:35:29.012Z,11.80
2023-03-13T15:37:59.884Z,7.35
2023-03-13T15:40:30.811Z,4.03
2023-03-13T15:42:59.139Z,2.80
2023-03-13T15:45:26.801Z,3.08
2023-03-13T15:47:54.909Z,2.65
2023-03-13T15:50:24.719Z,3.42
2023-03-13T15:52:52.399Z,3.35
2023-03-13T15:55:20.376Z,2.85
2023-03-13T15:57:50.487Z,3.30
2023-03-13T16:00:25.856Z,5.50
2023-03-13T16:02:58.219Z,7.15
2023-03-13T16:05:36.273Z,17.20
2023-03-13T16:08:04.775Z,15.13
2023-03-13T16:10:32.884Z,7.67
2023-03-13T16:13:02.814Z,21.68
2023-03-13T16:15:30.561Z,32.70
2023-03-13T16:17:58.521Z,23.62
2023-03-13T16:20:28.424Z,25.35
2023-03-13T16:22:56.582Z,25.90
2023-03-13T16:25:25.311Z,23.67
2023-03-13T16:27:55.018Z,24.45
2023-03-13T16:30:30.118Z,24.98
2023-03-13T16:32:59.297Z,43.23
2023-03-13T16:35:28.580Z,46.58
2023-03-13T16:37:57.822Z,60.25
2023-03-13T16:40:30.320Z,61.37
2023-03-13T16:42:58.413Z,64.95
2023-03-13T16:45:26.618Z,63.98
2023-03-13T16:47:54.573Z,61.33
2023-03-13T16:50:30.363Z,59.85
2023-03-13T16:52:58.181Z,52.80
2023-03-13T16:55:36.407Z,49.10
2023-03-13T16:58:05.017Z,50.45
2023-03-13T17:00:32.997Z,50.58
2023-03-13T17:03:00.860Z,49.27
2023-03-13T17:05:29.485Z,50.65
2023-03-13T17:07:59.772Z,40.40
2023-03-13T17:10:32.285Z,33.00
2023-03-13T17:13:00.118Z,33.08
2023-03-13T17:15:28.993Z,49.98
2023-03-13T17:18:02.585Z,69.53
2023-03-13T17:20:48.314Z,79.75
2023-03-13T17:23:16.286Z,102.15
2023-03-13T17:25:44.205Z,93.85
2023-03-13T17:28:14.862Z,53.85
2023-03-13T17:30:42.764Z,39.70
2023-03-13T17:33:10.603Z,38.73
2023-03-13T17:35:38.622Z,48.25
2023-03-13T17:38:06.189Z,231.75
2023-03-13T17:40:34.431Z,204.10
2023-03-13T17:43:03.125Z,76.05
2023-03-13T17:45:32.751Z,46.40
2023-03-13T17:48:00.392Z,55.17
2023-03-13T17:50:29.036Z,47.38
2023-03-13T17:52:56.547Z,39.30
2023-03-13T17:55:24.816Z,32.38
2023-03-13T17:57:53.195Z,26.15
2023-03-13T18:00:35.348Z,25.72
2023-03-13T18:03:03.507Z,25.30
2023-03-13T18:05:31.378Z,22.98
2023-03-13T18:07:59.239Z,26.62
2023-03-13T18:10:30.346Z,24.57
2023-03-13T18:12:58.638Z,24.00
2023-03-13T18:15:26.955Z,23.45
2023-03-13T18:17:54.817Z,26.57
2023-03-13T18:20:26.997Z,26.60
2023-03-13T18:26:08.676Z,28.77
2023-03-13T18:28:55.976Z,28.42
2023-03-13T18:31:44.963Z,23.05
2023-03-13T18:34:15.502Z,22.10
2023-03-13T18:36:44.011Z,23.80
2023-03-13T18:39:22.603Z,24.52
2023-03-13T18:41:52.331Z,21.50
2023-03-13T18:44:27.020Z,20.23
2023-03-13T18:46:55.037Z,18.05
2023-03-13T18:49:24.345Z,19.48
2023-03-13T18:51:53.545Z,18.75
2023-03-13T18:54:21.537Z,15.95
2023-03-13T18:56:49.254Z,16.07
2023-03-13T18:59:22.252Z,15.60
2023-03-13T19:01:50.546Z,16.15
2023-03-13T19:04:19.633Z,16.27
2023-03-13T19:06:47.746Z,16.90
2023-03-13T19:09:41.733Z,17.57
2023-03-13T19:11:48.663Z,21.10
2023-03-13T19:14:16.776Z,26.20
2023-03-13T19:16:52.492Z,23.40
2023-03-13T19:19:24.167Z,21.17
2023-03-13T19:21:56.524Z,20.92
2023-03-13T19:24:26.793Z,21.55
2023-03-13T19:26:59.437Z,20.27
2023-03-13T19:29:39.930Z,19.40
2023-03-13T19:32:28.546Z,22.77
2023-03-13T19:34:56.210Z,19.30
2023-03-13T19:37:24.521Z,17.98
2023-03-13T19:39:52.301Z,17.73
2023-03-13T19:42:20.283Z,18.10
2023-03-13T19:44:49.815Z,19.52
2023-03-13T19:47:17.820Z,21.00
2023-03-13T19:49:49.047Z,22.40
2023-03-13T19:52:18.856Z,21.12
2023-03-13T19:54:47.186Z,23.27
2023-03-13T19:57:16.849Z,19.15
2023-03-13T19:59:45.306Z,18.30
2023-03-13T20:02:13.257Z,18.35
2023-03-13T20:04:43.356Z,16.95
2023-03-13T20:07:11.375Z,17.57
2023-03-13T20:09:39.196Z,18.48
2023-03-13T20:12:07.376Z,17.75
2023-03-13T20:14:35.361Z,16.87
2023-03-13T20:17:03.281Z,17.70
2023-03-13T20:19:31.164Z,17.07
2023-03-13T20:22:00.866Z,17.00
2023-03-13T20:24:34.691Z,16.95
2023-03-13T20:27:03.836Z,15.95
2023-03-13T20:29:33.425Z,16.07
2023-03-13T20:32:03.088Z,15.95
2023-03-13T20:34:31.144Z,17.42
2023-03-13T20:36:59.546Z,16.73
2023-03-13T20:39:28.532Z,18.48
2023-03-13T20:41:56.955Z,18.87
2023-03-13T20:44:41.329Z,17.20
2023-03-13T20:47:25.771Z,16.02
2023-03-13T20:49:53.423Z,14.20
2023-03-13T20:52:21.155Z,14.73
2023-03-13T20:54:49.075Z,13.32
2023-03-13T20:57:18.536Z,13.38
2023-03-13T20:59:46.567Z,13.35
2023-03-13T21:02:14.616Z,13.55
2023-03-13T21:04:42.829Z,12.35
2023-03-13T21:07:10.596Z,14.75
2023-03-13T21:09:38.425Z,15.48
2023-03-13T21:12:06.656Z,15.63
2023-03-13T21:14:35.879Z,14.85
2023-03-13T21:17:04.040Z,14.87
2023-03-13T21:19:33.736Z,15.78
2023-03-13T21:22:01.933Z,16.12
2023-03-13T21:24:29.650Z,14.65
2023-03-13T21:26:58.952Z,13.95
2023-03-13T21:29:26.570Z,14.73
2023-03-13T21:31:54.132Z,14.05
2023-03-13T21:34:21.927Z,13.05
2023-03-13T21:36:49.798Z,13.18
2023-03-13T21:39:20.907Z,13.62
2023-03-13T21:41:48.894Z,12.20
2023-03-13T21:44:18.600Z,13.85
2023-03-13T21:46:48.238Z,12.63
2023-03-13T21:49:15.930Z,13.38
2023-03-13T21:51:44.123Z,12.30
2023-03-13T21:54:12.235Z,11.95
2023-03-13T21:56:40.489Z,12.28
2023-03-13T21:59:08.799Z,12.45
2023-03-13T22:01:36.707Z,11.65
2023-03-13T22:04:04.560Z,11.38
2023-03-13T22:06:34.332Z,11.85
2023-03-13T22:09:05.892Z,9.78
2023-03-13T22:11:33.896Z,10.15
2023-03-13T22:14:03.624Z,8.85
2023-03-13T22:16:35.052Z,9.68
2023-03-13T22:19:03.653Z,11.00
2023-03-13T22:21:34.801Z,12.68
2023-03-13T22:24:02.944Z,14.65
2023-03-13T22:26:31.936Z,15.10
2023-03-13T22:28:59.539Z,16.27
2023-03-13T22:31:27.141Z,15.45
2023-03-13T22:33:56.717Z,16.32
2023-03-13T22:36:24.723Z,16.07
2023-03-13T22:38:56.681Z,17.90
2023-03-13T22:41:24.571Z,19.85
2023-03-13T22:43:52.667Z,19.30
2023-03-13T22:46:20.875Z,17.52
2023-03-13T22:48:49.060Z,18.25
2023-03-13T22:51:16.833Z,14.75
2023-03-13T22:53:44.559Z,11.90
2023-03-13T22:56:14.527Z,10.82
2023-03-13T22:58:44.419Z,11.05
2023-03-13T23:01:16.832Z,9.68
2023-03-13T23:03:45.968Z,7.87
2023-03-13T23:06:21.484Z,8.58
2023-03-13T23:08:50.059Z,7.72
2023-03-13T23:11:18.503Z,7.80
2023-03-13T23:13:46.517Z,8.48
2023-03-13T23:16:14.775Z,8.40
2023-03-13T23:18:43.152Z,7.47
2023-03-13T23:21:14.127Z,7.30
2023-03-13T23:23:42.940Z,7.45
2023-03-13T23:26:13.917Z,8.08
2023-03-13T23:28:41.977Z,9.53
2023-03-13T23:31:17.040Z,10.90
2023-03-13T23:33:46.360Z,10.45
2023-03-13T23:36:17.505Z,9.05
2023-03-13T23:38:51.713Z,9.40
2023-03-13T23:41:21.187Z,9.28
2023-03-13T23:43:48.742Z,10.95
2023-03-13T23:46:20.897Z,11.53
2023-03-13T23:48:50.552Z,12.95
2023-03-13T23:51:18.490Z,10.95
2023-03-13T23:53:46.230Z,10.23
2023-03-13T23:56:14.877Z,10.13
2023-03-13T23:58:43.138Z,8.25
